Time,TemperatureF,DewpointF,PressureIn,WindDirection,WindDirectionDegrees,WindSpeedMPH,WindSpeedGustMPH,Humidity,HourlyPrecipIn,Conditions,Clouds,dailyrainin,SoftwareType,DateUTC
2013-10-22 00:00:00,37.7,33.0,30.05,WNW,303,0.0,3.0,84,0.00,,,0.00,weatherlink.com 1.10,2013-10-22 05:00:00,
2013-10-22 00:15:00,36.9,33.0,30.04,WNW,303,0.0,3.0,85,0.00,,,0.00,weatherlink.com 1.10,2013-10-22 05:15:00,
2013-10-22 00:30:00,36.3,33.0,30.04,WNW,303,1.0,2.0,86,0.00,,,0.00,weatherlink.com 1.10,2013-10-22 05:30:00,
2013-10-22 00:45:00,36.1,33.0,30.04,WNW,303,0.0,2.0,88,0.00,,,0.00,weatherlink.com 1.10,2013-10-22 05:45:00,
2013-10-22 01:00:00,36.3,33.0,30.05,WNW,303,0.0,2.0,88,0.00,,,0.00,weatherlink.com 1.10,2013-10-22 06:00:00,
2013-10-22 01:15:00,35.8,33.0,30.04,WNW,303,0.0,1.0,88,0.00,,,0.00,weatherlink.com 1.10,2013-10-22 06:15:00,
2013-10-22 01:30:00,36.4,33.0,30.04,WNW,303,1.0,3.0,88,0.00,,,0.00,weatherlink.com 1.10,2013-10-22 06:30:00,
2013-10-22 01:45:00,36.1,33.0,30.04,WNW,303,0.0,1.0,88,0.00,,,0.00,weatherlink.com 1.10,2013-10-22 06:45:00,
2013-10-22 02:00:00,36.0,33.0,30.04,WNW,303,0.0,0.0,89,0.00,,,0.00,weatherlink.com 1.10,2013-10-22 07:00:00,
2013-10-22 02:15:00,35.6,33.0,30.04,WNW,303,0.0,2.0,89,0.00,,,0.00,weatherlink.com 1.10,2013-10-22 07:15:00,
2013-10-22 02:30:00,35.3,33.0,30.03,WNW,303,1.0,2.0,90,0.00,,,0.00,weatherlink.com 1.10,2013-10-22 07:30:00,
2013-10-22 02:45:00,34.7,32.0,30.03,WNW,303,2.0,4.0,90,0.00,,,0.00,weatherlink.com 1.10,2013-10-22 07:45:00,
2013-10-22 03:00:00,34.4,32.0,30.03,WNW,303,3.0,3.0,91,0.00,,,0.00,weatherlink.com 1.10,2013-10-22 08:00:00,
2013-10-22 03:15:00,34.2,32.0,30.02,WNW,303,3.0,4.0,92,0.00,,,0.00,weatherlink.com 1.10,2013-10-22 08:15:00,
2013-10-22 03:30:00,34.3,32.0,30.02,WNW,303,1.0,3.0,92,0.00,,,0.00,weatherlink.com 1.10,2013-10-22 08:30:00,
2013-10-22 03:45:00,34.1,32.0,30.01,WNW,303,3.0,4.0,93,0.00,,,0.00,weatherlink.com 1.10,2013-10-22 08:45:00,
2013-10-22 04:00:00,34.2,32.0,30.01,WNW,303,2.0,3.0,93,0.00,,,0.00,weatherlink.com 1.10,2013-10-22 09:00:00,
2013-10-22 04:15:00,34.2,32.0,30.01,WNW,303,5.0,5.0,93,0.00,,,0.00,weatherlink.com 1.10,2013-10-22 09:15:00,
2013-10-22 04:30:00,34.7,33.0,30.00,South,182,0.0,5.0,94,0.00,,,0.00,weatherlink.com 1.10,2013-10-22 09:30:00,
2013-10-22 04:45:00,35.3,34.0,30.01,SSW,209,3.0,5.0,94,0.00,,,0.00,weatherlink.com 1.10,2013-10-22 09:45:00,
2013-10-22 05:00:00,36.2,34.0,30.00,South,187,1.0,4.0,93,0.00,,,0.00,weatherlink.com 1.10,2013-10-22 10:00:00,
2013-10-22 05:15:00,36.8,35.0,30.00,SSW,205,3.0,5.0,92,0.00,,,0.00,weatherlink.com 1.10,2013-10-22 10:15:00,
2013-10-22 05:30:00,37.3,35.0,30.00,SSW,212,0.0,6.0,90,0.00,,,0.00,weatherlink.com 1.10,2013-10-22 10:30:00,
2013-10-22 05:45:00,37.7,35.0,30.00,SW,220,2.0,5.0,90,0.00,,,0.00,weatherlink.com 1.10,2013-10-22 10:45:00,
2013-10-22 06:00:00,38.2,35.0,30.00,SSW,196,0.0,6.0,89,0.00,,,0.00,weatherlink.com 1.10,2013-10-22 11:00:00,
2013-10-22 06:15:00,38.7,36.0,30.00,SSW,207,5.0,7.0,88,0.00,,,0.00,weatherlink.com 1.10,2013-10-22 11:15:00,
2013-10-22 06:30:00,39.1,36.0,29.99,South,188,3.0,8.0,87,0.00,,,0.00,weatherlink.com 1.10,2013-10-22 11:30:00,
2013-10-22 06:45:00,39.4,36.0,29.98,South,182,7.0,8.0,86,0.00,,,0.00,weatherlink.com 1.10,2013-10-22 11:45:00,
2013-10-22 07:00:00,39.6,36.0,29.98,South,184,2.0,7.0,86,0.00,,,0.00,weatherlink.com 1.10,2013-10-22 12:00:00,
2013-10-22 07:15:00,39.7,36.0,29.97,SSW,192,4.0,10.0,86,0.00,,,0.00,weatherlink.com 1.10,2013-10-22 12:15:00,
2013-10-22 07:30:00,40.0,36.0,29.97,South,183,4.0,10.0,85,0.00,,,0.00,weatherlink.com 1.10,2013-10-22 12:30:00,
2013-10-22 07:45:00,40.2,36.0,29.96,South,186,7.0,8.0,85,0.00,,,0.00,weatherlink.com 1.10,2013-10-22 12:45:00,
2013-10-22 08:01:00,40.2,36.0,29.95,SSW,201,4.0,13.0,85,0.00,,,0.00,weatherlink.com 1.10,2013-10-22 13:01:00,
2013-10-22 08:16:00,40.5,36.0,29.95,South,175,7.0,13.0,85,0.00,,,0.00,weatherlink.com 1.10,2013-10-22 13:16:00,
2013-10-22 08:31:00,40.9,37.0,29.95,SSW,194,8.0,10.0,85,0.00,,,0.00,weatherlink.com 1.10,2013-10-22 13:31:00,
2013-10-22 08:46:00,41.2,37.0,29.94,South,189,3.0,12.0,85,0.00,,,0.00,weatherlink.com 1.10,2013-10-22 13:46:00,
2013-10-22 09:01:00,41.4,37.0,29.94,SE,136,5.0,13.0,84,0.00,,,0.00,weatherlink.com 1.10,2013-10-22 14:01:00,
2013-10-22 09:16:00,42.2,38.0,29.94,SSW,203,6.0,13.0,84,0.00,,,0.00,weatherlink.com 1.10,2013-10-22 14:16:00,
2013-10-22 09:31:00,43.2,38.0,29.94,SSW,212,3.0,9.0,83,0.00,,,0.00,weatherlink.com 1.10,2013-10-22 14:31:00,
2013-10-22 09:46:00,44.2,39.0,29.94,SSW,192,7.0,7.0,82,0.00,,,0.00,weatherlink.com 1.10,2013-10-22 14:46:00,
2013-10-22 10:01:00,44.6,39.0,29.93,SSW,193,5.0,9.0,81,0.00,,,0.00,weatherlink.com 1.10,2013-10-22 15:01:00,
2013-10-22 10:16:00,45.3,40.0,29.93,SSW,212,7.0,7.0,80,0.00,,,0.00,weatherlink.com 1.10,2013-10-22 15:16:00,
2013-10-22 10:31:00,46.0,40.0,29.91,South,175,6.0,10.0,78,0.00,,,0.00,weatherlink.com 1.10,2013-10-22 15:31:00,
2013-10-22 10:46:00,46.6,40.0,29.90,South,183,8.0,14.0,78,0.00,,,0.00,weatherlink.com 1.10,2013-10-22 15:46:00,
2013-10-22 11:01:00,47.2,41.0,29.91,South,175,6.0,11.0,78,0.00,,,0.00,weatherlink.com 1.10,2013-10-22 16:01:00,
2013-10-22 11:16:00,48.3,41.0,29.90,SSW,205,4.0,11.0,76,0.00,,,0.00,weatherlink.com 1.10,2013-10-22 16:16:00,
2013-10-22 11:31:00,49.0,41.0,29.89,SSW,207,7.0,14.0,74,0.00,,,0.00,weatherlink.com 1.10,2013-10-22 16:31:00,
2013-10-22 11:46:00,50.3,42.0,29.89,SSW,195,4.0,12.0,72,0.00,,,0.00,weatherlink.com 1.10,2013-10-22 16:46:00,
2013-10-22 12:01:00,51.9,42.0,29.88,South,184,5.0,14.0,70,0.00,,,0.00,weatherlink.com 1.10,2013-10-22 17:01:00,
2013-10-22 12:16:00,52.6,43.0,29.87,SSW,206,3.0,10.0,69,0.00,,,0.00,weatherlink.com 1.10,2013-10-22 17:16:00,
2013-10-22 12:31:00,55.3,44.0,29.86,SW,217,4.0,16.0,65,0.00,,,0.00,weatherlink.com 1.10,2013-10-22 17:31:00,
2013-10-22 12:47:00,56.6,45.0,29.86,SW,217,2.0,13.0,65,0.00,,,0.00,weatherlink.com 1.10,2013-10-22 17:47:00,
2013-10-22 13:02:00,58.5,45.0,29.86,WSW,255,3.0,13.0,62,0.00,,,0.00,weatherlink.com 1.10,2013-10-22 18:02:00,
2013-10-22 13:17:00,59.3,45.0,29.84,SW,230,5.0,14.0,59,0.00,,,0.00,weatherlink.com 1.10,2013-10-22 18:17:00,
2013-10-22 13:32:00,60.5,46.0,29.84,WNW,290,6.0,14.0,59,0.00,,,0.00,weatherlink.com 1.10,2013-10-22 18:32:00,
2013-10-22 13:47:00,61.9,47.0,29.83,West,273,7.0,11.0,58,0.00,,,0.00,weatherlink.com 1.10,2013-10-22 18:47:00,
2013-10-22 14:02:00,62.9,46.0,29.83,WNW,300,2.0,18.0,55,0.00,,,0.00,weatherlink.com 1.10,2013-10-22 19:02:00,
2013-10-22 14:17:00,61.3,45.0,29.82,SSW,202,2.0,13.0,56,0.00,,,0.00,weatherlink.com 1.10,2013-10-22 19:17:00,
2013-10-22 14:32:00,62.4,46.0,29.82,WNW,295,3.0,12.0,56,0.00,,,0.00,weatherlink.com 1.10,2013-10-22 19:32:00,
2013-10-22 14:47:00,60.7,46.0,29.81,West,270,4.0,11.0,58,0.00,,,0.00,weatherlink.com 1.10,2013-10-22 19:47:00,
2013-10-22 15:02:00,55.6,49.0,29.81,WNW,294,1.0,10.0,78,0.03,,,0.03,weatherlink.com 1.10,2013-10-22 20:02:00,
2013-10-22 15:17:00,55.3,49.0,29.82,SW,217,3.0,11.0,79,0.03,,,0.03,weatherlink.com 1.10,2013-10-22 20:17:00,
2013-10-22 15:32:00,59.8,52.0,29.82,WNW,292,4.0,11.0,75,0.03,,,0.03,weatherlink.com 1.10,2013-10-22 20:32:00,
2013-10-22 15:47:00,61.1,48.0,29.82,SW,234,6.0,17.0,62,0.03,,,0.03,weatherlink.com 1.10,2013-10-22 20:47:00,
2013-10-22 16:02:00,59.7,46.0,29.83,WNW,294,9.0,20.0,60,0.00,,,0.03,weatherlink.com 1.10,2013-10-22 21:02:00,
2013-10-22 16:17:00,59.5,44.0,29.84,WNW,293,3.0,27.0,57,0.00,,,0.03,weatherlink.com 1.10,2013-10-22 21:17:00,
2013-10-22 16:32:00,58.5,44.0,29.85,NW,326,4.0,19.0,60,0.00,,,0.03,weatherlink.com 1.10,2013-10-22 21:32:00,
2013-10-22 16:47:00,56.9,43.0,29.86,West,278,9.0,20.0,61,0.00,,,0.03,weatherlink.com 1.10,2013-10-22 21:47:00,
2013-10-22 17:02:00,56.7,42.0,29.86,NW,316,4.0,14.0,59,0.00,,,0.03,weatherlink.com 1.10,2013-10-22 22:02:00,
2013-10-22 17:17:00,56.0,41.0,29.87,WNW,293,5.0,18.0,58,0.00,,,0.03,weatherlink.com 1.10,2013-10-22 22:17:00,
2013-10-22 17:32:00,56.1,42.0,29.89,NNW,340,11.0,19.0,59,0.00,,,0.03,weatherlink.com 1.10,2013-10-22 22:32:00,
2013-10-22 17:47:00,51.7,44.0,29.90,NW,309,3.0,16.0,74,0.01,,,0.04,weatherlink.com 1.10,2013-10-22 22:47:00,
2013-10-22 18:02:00,49.9,43.0,29.90,WNW,298,5.0,10.0,76,0.01,,,0.04,weatherlink.com 1.10,2013-10-22 23:02:00,
2013-10-22 18:17:00,49.9,42.0,29.91,North,355,9.0,19.0,75,0.01,,,0.04,weatherlink.com 1.10,2013-10-22 23:17:00,
2013-10-22 18:32:00,49.2,42.0,29.93,NNW,337,7.0,16.0,75,0.01,,,0.04,weatherlink.com 1.10,2013-10-22 23:32:00,
2013-10-22 18:47:00,48.5,42.0,29.94,NNW,334,4.0,15.0,77,0.00,,,0.04,weatherlink.com 1.10,2013-10-22 23:47:00,
2013-10-22 19:02:00,48.0,40.0,29.95,WNW,289,5.0,20.0,75,0.00,,,0.04,weatherlink.com 1.10,2013-10-23 00:02:00,
2013-10-22 19:17:00,47.2,40.0,29.95,North,5,6.0,18.0,75,0.00,,,0.04,weatherlink.com 1.10,2013-10-23 00:17:00,
2013-10-22 19:32:00,46.7,40.0,29.96,NNW,327,5.0,10.0,76,0.00,,,0.04,weatherlink.com 1.10,2013-10-23 00:32:00,
2013-10-22 19:47:00,46.2,39.0,29.97,NNE,24,1.0,11.0,77,0.00,,,0.04,weatherlink.com 1.10,2013-10-23 00:47:00,
2013-10-22 20:02:00,45.5,39.0,29.98,North,350,5.0,9.0,78,0.00,,,0.04,weatherlink.com 1.10,2013-10-23 01:02:00,
2013-10-22 20:17:00,45.3,40.0,29.99,NW,317,12.0,13.0,80,0.00,,,0.04,weatherlink.com 1.10,2013-10-23 01:17:00,
2013-10-22 20:32:00,44.9,39.0,30.00,NNW,333,5.0,16.0,79,0.00,,,0.04,weatherlink.com 1.10,2013-10-23 01:32:00,
2013-10-22 20:47:00,44.5,38.0,30.00,NW,313,8.0,11.0,79,0.00,,,0.04,weatherlink.com 1.10,2013-10-23 01:47:00,
2013-10-22 21:02:00,44.0,38.0,30.00,North,355,5.0,11.0,79,0.00,,,0.04,weatherlink.com 1.10,2013-10-23 02:02:00,
2013-10-22 21:17:00,43.0,37.0,30.01,North,360,12.0,12.0,80,0.00,,,0.04,weatherlink.com 1.10,2013-10-23 02:17:00,
2013-10-22 21:32:00,42.0,37.0,30.02,NW,320,3.0,12.0,81,0.00,,,0.04,weatherlink.com 1.10,2013-10-23 02:32:00,
2013-10-22 21:47:00,41.5,37.0,30.02,North,360,3.0,9.0,84,0.00,,,0.04,weatherlink.com 1.10,2013-10-23 02:47:00,
2013-10-22 22:02:00,41.6,37.0,30.02,NW,325,5.0,11.0,83,0.00,,,0.04,weatherlink.com 1.10,2013-10-23 03:02:00,
2013-10-22 22:17:00,41.1,36.0,30.03,NNW,342,2.0,10.0,83,0.00,,,0.04,weatherlink.com 1.10,2013-10-23 03:17:00,
2013-10-22 22:32:00,40.9,36.0,30.03,North,360,3.0,8.0,84,0.00,,,0.04,weatherlink.com 1.10,2013-10-23 03:32:00,
2013-10-22 22:47:00,41.1,36.0,30.03,NNW,336,5.0,8.0,83,0.00,,,0.04,weatherlink.com 1.10,2013-10-23 03:47:00,
2013-10-22 23:02:00,41.2,37.0,30.03,North,5,8.0,12.0,84,0.00,,,0.04,weatherlink.com 1.10,2013-10-23 04:02:00,
2013-10-22 23:17:00,41.2,37.0,30.03,North,355,4.0,7.0,84,0.00,,,0.04,weatherlink.com 1.10,2013-10-23 04:17:00,
2013-10-22 23:32:00,41.3,37.0,30.03,NW,324,6.0,10.0,84,0.00,,,0.04,weatherlink.com 1.10,2013-10-23 04:32:00,
2013-10-22 23:47:00,41.3,37.0,30.03,NNW,344,8.0,11.0,85,0.00,,,0.04,weatherlink.com 1.10,2013-10-23 04:47:00,